Canjilon, New Mexico
Current Conditions -  °F | °C
As of 3:15 AM on Tuesday 21 Oct 2014 (Local Time) from KLAM Reporting Station
Scattered Clouds Scattered Clouds  
Wind Chill: 46°   Ceiling: Unl
Heat Index: 48°   Visibility: 10mi
Dew Point: 44°   Wind: 6mph
Humidity: 84%   Direction: 210°SSW
Pressure: 30.23"   Gusts: NA
Location:  36.48°N, 106.44°W
Report Text: KLAM 210915Z AUTO 21005KT 10SM SCT070 09/07 A3023 RMK AO2 T00900065
Loading
Personal Weather Stations






























Interactive Weather Map
Tropical Storm Tracking
New forecast layout! Learn more

10-Day Weather Forecast

Advertisements
Track Severe Weather on mobile